createdAt,value
2023-02-09T00:00:48.196Z,4.75
2023-02-09T00:03:35.545Z,5.60
2023-02-09T00:06:23.207Z,5.57
2023-02-09T00:09:09.000Z,5.03
2023-02-09T00:12:13.558Z,5.30
2023-02-09T00:14:59.075Z,5.15
2023-02-09T00:17:44.843Z,6.95
2023-02-09T00:20:31.911Z,6.05
2023-02-09T00:23:17.684Z,6.10
2023-02-09T00:26:05.895Z,6.30
2023-02-09T00:28:51.664Z,5.65
2023-02-09T00:31:39.912Z,5.18
2023-02-09T00:34:25.792Z,5.53
2023-02-09T00:37:16.028Z,4.95
2023-02-09T00:40:06.633Z,5.25
2023-02-09T00:42:53.723Z,5.18
2023-02-09T00:45:39.826Z,5.22
2023-02-09T00:48:26.281Z,5.55
2023-02-09T00:51:12.354Z,4.80
2023-02-09T00:53:59.683Z,4.57
2023-02-09T00:56:45.626Z,5.00
2023-02-09T00:59:33.433Z,5.28
2023-02-09T01:02:19.482Z,5.22
2023-02-09T01:05:06.050Z,4.75
2023-02-09T01:07:52.099Z,5.32
2023-02-09T01:10:40.542Z,5.22
2023-02-09T01:13:26.324Z,5.38
2023-02-09T01:16:15.393Z,5.20
2023-02-09T01:19:01.860Z,5.20
2023-02-09T01:21:49.271Z,5.40
2023-02-09T01:24:36.291Z,6.00
2023-02-09T01:27:23.751Z,6.25
2023-02-09T01:30:10.745Z,4.95
2023-02-09T01:32:57.060Z,5.45
2023-02-09T01:35:42.756Z,6.18
2023-02-09T01:38:28.688Z,5.57
2023-02-09T01:41:14.900Z,5.75
2023-02-09T01:44:03.448Z,5.57
2023-02-09T01:46:49.256Z,5.88
2023-02-09T01:49:35.285Z,5.93
2023-02-09T01:52:25.609Z,6.35
2023-02-09T01:55:14.740Z,4.23
2023-02-09T01:58:03.731Z,5.15
2023-02-09T02:00:51.451Z,5.57
2023-02-09T02:03:39.367Z,5.80
2023-02-09T02:06:25.425Z,5.47
2023-02-09T02:09:13.604Z,5.35
2023-02-09T02:12:00.736Z,5.60
2023-02-09T02:14:46.486Z,5.97
2023-02-09T02:17:47.667Z,5.40
2023-02-09T02:20:59.567Z,5.82
2023-02-09T02:23:56.574Z,6.05
2023-02-09T02:26:53.522Z,5.53
2023-02-09T02:30:08.346Z,5.32
2023-02-09T02:33:06.712Z,6.10
2023-02-09T02:35:58.151Z,5.18
2023-02-09T02:38:54.340Z,6.00
2023-02-09T02:42:07.199Z,5.80
2023-02-09T02:44:59.898Z,5.95
2023-02-09T02:47:52.015Z,5.72
2023-02-09T02:50:45.569Z,6.10
2023-02-09T02:53:35.877Z,5.80
2023-02-09T02:56:30.569Z,6.50
2023-02-09T02:59:21.307Z,5.80
2023-02-09T03:02:12.474Z,4.80
2023-02-09T03:07:49.835Z,5.55
2023-02-09T03:10:37.495Z,5.55
2023-02-09T03:13:40.832Z,6.15
2023-02-09T03:16:34.444Z,5.50
2023-02-09T03:19:32.986Z,5.85
2023-02-09T03:22:29.138Z,6.25
2023-02-09T03:25:22.487Z,5.88
2023-02-09T03:28:12.348Z,5.18
2023-02-09T03:31:00.017Z,6.50
2023-02-09T03:33:46.231Z,6.38
2023-02-09T03:36:33.664Z,6.30
2023-02-09T03:39:19.474Z,5.82
2023-02-09T03:42:07.469Z,6.15
2023-02-09T03:44:52.963Z,5.88
2023-02-09T03:47:38.332Z,6.22
2023-02-09T03:50:24.274Z,5.75
2023-02-09T03:53:09.835Z,6.03
2023-02-09T03:55:55.690Z,6.25
2023-02-09T03:58:42.821Z,6.38
2023-02-09T04:01:28.247Z,6.20
2023-02-09T04:04:14.176Z,6.22
2023-02-09T04:07:00.445Z,5.68
2023-02-09T04:09:46.207Z,5.95
2023-02-09T04:12:32.269Z,5.88
2023-02-09T04:15:19.579Z,5.00
2023-02-09T04:18:05.400Z,6.53
2023-02-09T04:20:51.084Z,5.70
2023-02-09T04:23:37.019Z,5.60
2023-02-09T04:26:22.967Z,5.97
2023-02-09T04:29:08.452Z,6.30
2023-02-09T04:31:56.056Z,5.80
2023-02-09T04:34:41.488Z,5.90
2023-02-09T04:37:27.252Z,5.88
2023-02-09T04:40:13.049Z,5.78
2023-02-09T04:42:58.725Z,6.05
2023-02-09T04:45:44.862Z,5.20
2023-02-09T04:48:32.054Z,5.75
2023-02-09T04:51:18.006Z,5.70
2023-02-09T04:54:04.010Z,6.50
2023-02-09T04:57:09.847Z,5.55
2023-02-09T04:59:55.704Z,5.05
2023-02-09T05:02:41.415Z,5.45
2023-02-09T05:05:28.707Z,6.43
2023-02-09T05:08:14.548Z,6.20
2023-02-09T05:11:00.565Z,5.75
2023-02-09T05:13:46.639Z,5.63
2023-02-09T05:16:32.096Z,5.70
2023-02-09T05:19:17.799Z,5.60
2023-02-09T05:22:04.923Z,5.07
2023-02-09T05:24:50.632Z,5.53
2023-02-09T05:27:36.447Z,5.32
2023-02-09T05:30:22.579Z,5.68
2023-02-09T05:33:08.010Z,5.50
2023-02-09T05:35:55.761Z,6.20
2023-02-09T05:38:42.876Z,6.00
2023-02-09T05:41:46.990Z,5.57
2023-02-09T05:44:32.697Z,5.25
2023-02-09T05:47:20.368Z,5.30
2023-02-09T05:50:06.259Z,5.68
2023-02-09T05:52:52.224Z,5.45
2023-02-09T05:55:39.402Z,5.80
2023-02-09T05:58:24.894Z,5.65
2023-02-09T06:01:10.895Z,5.53
2023-02-09T06:03:56.309Z,6.28
2023-02-09T06:06:42.180Z,6.38
2023-02-09T06:09:28.660Z,5.68
2023-02-09T06:12:15.691Z,5.78
2023-02-09T06:15:01.564Z,5.63
2023-02-09T06:17:47.572Z,5.80
2023-02-09T06:20:33.195Z,6.22
2023-02-09T06:23:18.875Z,6.18
2023-02-09T06:26:06.851Z,5.70
2023-02-09T06:28:53.656Z,6.13
2023-02-09T06:31:41.908Z,6.25
2023-02-09T06:34:28.192Z,5.47
2023-02-09T06:37:13.652Z,6.25
2023-02-09T06:39:59.522Z,6.65
2023-02-09T06:42:45.263Z,6.72
2023-02-09T06:45:32.392Z,6.95
2023-02-09T06:48:18.355Z,6.05
2023-02-09T06:51:08.185Z,5.78
2023-02-09T06:53:53.705Z,6.47
2023-02-09T06:56:39.318Z,6.95
2023-02-09T06:59:24.883Z,6.95
2023-02-09T07:02:11.852Z,6.15
2023-02-09T07:05:00.209Z,6.80
2023-02-09T07:07:46.540Z,6.30
2023-02-09T07:10:32.181Z,6.53
2023-02-09T07:13:17.655Z,6.47
2023-02-09T07:16:07.729Z,6.50
2023-02-09T07:18:54.945Z,6.45
2023-02-09T07:21:41.004Z,6.47
2023-02-09T07:24:26.688Z,6.75
2023-02-09T07:27:12.139Z,6.18
2023-02-09T07:29:59.316Z,6.20
2023-02-09T07:32:46.368Z,7.30
2023-02-09T07:35:33.481Z,6.72
2023-02-09T07:38:19.510Z,7.15
2023-02-09T07:41:06.871Z,7.03
2023-02-09T07:43:52.952Z,6.72
2023-02-09T07:46:38.700Z,6.90
2023-02-09T07:49:24.578Z,7.10
2023-02-09T07:52:12.214Z,7.07
2023-02-09T07:54:57.668Z,6.97
2023-02-09T07:57:43.905Z,6.70
2023-02-09T08:00:29.971Z,6.78
2023-02-09T08:03:18.169Z,7.05
2023-02-09T08:06:10.734Z,6.45
2023-02-09T08:08:58.162Z,6.88
2023-02-09T08:11:48.475Z,6.72
2023-02-09T08:14:39.825Z,7.25
2023-02-09T08:20:17.787Z,6.72
2023-02-09T08:23:09.090Z,6.40
2023-02-09T08:26:02.884Z,6.90
2023-02-09T08:28:49.596Z,6.45
2023-02-09T08:31:37.850Z,7.20
2023-02-09T08:34:23.758Z,6.82
2023-02-09T08:37:09.776Z,6.90
2023-02-09T08:39:55.684Z,7.00
2023-02-09T08:42:42.887Z,6.78
2023-02-09T08:45:28.934Z,7.15
2023-02-09T08:48:14.739Z,7.32
2023-02-09T08:51:01.272Z,7.10
2023-02-09T08:53:52.426Z,6.72
2023-02-09T08:56:38.436Z,6.68
2023-02-09T08:59:25.818Z,7.60
2023-02-09T09:02:11.587Z,7.57
2023-02-09T09:04:57.258Z,7.22
2023-02-09T09:07:43.335Z,7.50
2023-02-09T09:10:29.669Z,7.95
2023-02-09T09:13:15.480Z,6.60
2023-02-09T09:16:05.070Z,7.20
2023-02-09T09:18:51.224Z,7.38
2023-02-09T09:21:37.106Z,6.65
2023-02-09T09:24:23.783Z,7.45
2023-02-09T09:27:11.146Z,7.55
2023-02-09T09:29:57.100Z,7.57
2023-02-09T09:32:44.423Z,7.10
2023-02-09T09:35:31.016Z,7.10
2023-02-09T09:38:16.942Z,7.53
2023-02-09T09:41:03.650Z,7.28
2023-02-09T09:43:50.325Z,8.27
2023-02-09T09:46:39.510Z,7.70
2023-02-09T09:49:28.729Z,7.60
2023-02-09T09:52:21.010Z,7.47
2023-02-09T09:55:09.844Z,7.93
2023-02-09T09:57:58.546Z,8.35
2023-02-09T10:00:45.316Z,8.20
2023-02-09T10:03:31.084Z,8.57
2023-02-09T10:06:21.167Z,8.00
2023-02-09T10:09:16.089Z,8.55
2023-02-09T10:12:19.004Z,8.52
2023-02-09T10:15:22.063Z,8.13
2023-02-09T10:18:14.278Z,8.02
2023-02-09T10:21:03.460Z,8.65
2023-02-09T10:24:02.691Z,9.00
2023-02-09T10:27:03.768Z,8.48
2023-02-09T10:29:49.389Z,8.32
2023-02-09T10:32:39.983Z,7.82
2023-02-09T10:35:28.575Z,7.40
2023-02-09T10:38:18.326Z,8.38
2023-02-09T10:41:10.265Z,8.50
2023-02-09T10:43:56.408Z,8.98
2023-02-09T10:46:42.454Z,8.55
2023-02-09T10:49:31.191Z,8.60
2023-02-09T10:52:20.458Z,9.20
2023-02-09T10:55:24.251Z,8.70
2023-02-09T10:58:21.994Z,9.15
2023-02-09T11:01:19.317Z,8.55
2023-02-09T11:04:07.097Z,9.50
2023-02-09T11:06:55.413Z,8.95
2023-02-09T11:09:45.774Z,9.63
2023-02-09T11:12:31.599Z,8.63
2023-02-09T11:15:26.371Z,8.50
2023-02-09T11:18:16.999Z,9.35
2023-02-09T11:21:10.504Z,9.07
2023-02-09T11:24:02.073Z,9.35
2023-02-09T11:29:40.941Z,9.60
2023-02-09T11:32:34.126Z,9.95
2023-02-09T11:35:24.117Z,8.90
2023-02-09T11:38:15.799Z,9.15
2023-02-09T11:41:26.032Z,9.93
2023-02-09T11:44:20.848Z,9.63
2023-02-09T11:47:07.781Z,9.88
2023-02-09T11:49:58.479Z,9.18
2023-02-09T11:52:51.561Z,9.40
2023-02-09T11:55:42.975Z,10.23
2023-02-09T11:58:38.683Z,10.25
2023-02-09T12:01:32.605Z,10.00
2023-02-09T12:04:22.157Z,10.30
2023-02-09T12:07:17.651Z,10.15
2023-02-09T12:10:15.872Z,10.05
2023-02-09T12:13:11.433Z,9.43
2023-02-09T12:16:00.585Z,10.27
2023-02-09T12:18:47.135Z,10.40
2023-02-09T12:21:38.159Z,10.73
2023-02-09T12:24:39.366Z,10.88
2023-02-09T12:27:27.061Z,11.07
2023-02-09T12:30:50.385Z,10.75
2023-02-09T12:33:37.806Z,10.20
2023-02-09T12:36:29.596Z,11.07
2023-02-09T12:39:24.342Z,11.38
2023-02-09T12:42:39.153Z,11.13
2023-02-09T12:45:34.450Z,10.63
2023-02-09T12:48:21.274Z,12.25
2023-02-09T12:51:39.557Z,10.57
2023-02-09T12:54:38.686Z,11.85
2023-02-09T12:57:53.300Z,11.10
2023-02-09T13:00:51.729Z,11.93
2023-02-09T13:03:44.073Z,11.50
2023-02-09T13:06:39.354Z,11.70
2023-02-09T13:09:29.116Z,12.82
2023-02-09T13:12:20.058Z,11.30
2023-02-09T13:15:13.944Z,11.93
2023-02-09T13:18:09.912Z,13.50
2023-02-09T13:21:04.323Z,14.48
2023-02-09T13:24:00.830Z,14.70
2023-02-09T13:26:52.270Z,12.35
2023-02-09T13:29:38.262Z,12.55
2023-02-09T13:32:35.148Z,13.20
2023-02-09T13:35:24.432Z,12.75
2023-02-09T13:38:16.219Z,11.80
2023-02-09T13:41:03.163Z,13.60
2023-02-09T13:43:49.122Z,12.77
2023-02-09T13:46:35.462Z,14.00
2023-02-09T13:49:24.287Z,13.52
2023-02-09T13:52:12.599Z,13.63
2023-02-09T13:55:10.404Z,13.13
2023-02-09T13:58:00.414Z,12.38
2023-02-09T14:00:49.795Z,12.82
2023-02-09T14:03:46.901Z,13.93
2023-02-09T14:06:47.596Z,14.75
2023-02-09T14:09:43.178Z,13.60
2023-02-09T14:12:51.451Z,13.63
2023-02-09T14:15:58.416Z,13.98
2023-02-09T14:18:47.786Z,14.85
2023-02-09T14:21:46.174Z,15.50
2023-02-09T14:24:41.950Z,14.77
2023-02-09T14:27:29.573Z,13.80
2023-02-09T14:30:17.274Z,14.18
2023-02-09T14:33:03.925Z,13.43
2023-02-09T14:35:55.905Z,14.40
2023-02-09T14:38:43.007Z,14.90
2023-02-09T14:41:30.629Z,15.63
2023-02-09T14:44:21.297Z,15.73
2023-02-09T14:47:28.814Z,15.67
2023-02-09T14:50:17.266Z,15.18
2023-02-09T14:53:06.940Z,14.70
2023-02-09T14:55:54.591Z,15.27
2023-02-09T14:58:40.189Z,14.82
2023-02-09T15:01:25.790Z,15.18
2023-02-09T15:04:11.889Z,14.68
2023-02-09T15:07:01.965Z,15.40
2023-02-09T15:09:48.605Z,15.55
2023-02-09T15:12:35.730Z,15.25
2023-02-09T15:15:22.822Z,15.10
2023-02-09T15:18:19.027Z,15.52
2023-02-09T15:21:05.210Z,16.33
2023-02-09T15:23:51.233Z,16.92
2023-02-09T15:26:37.792Z,16.42
2023-02-09T15:29:26.058Z,15.13
2023-02-09T15:32:15.468Z,15.65
2023-02-09T15:35:01.149Z,15.63
2023-02-09T15:37:49.522Z,16.17
2023-02-09T15:40:58.656Z,15.60
2023-02-09T15:44:02.769Z,17.05
2023-02-09T15:47:08.524Z,16.98
2023-02-09T15:49:54.184Z,16.77
2023-02-09T15:52:40.009Z,17.63
2023-02-09T15:58:15.194Z,17.20
2023-02-09T16:03:48.113Z,17.65
2023-02-09T16:06:35.752Z,17.67
2023-02-09T16:09:25.050Z,17.20
2023-02-09T16:12:11.497Z,18.48
2023-02-09T16:14:57.488Z,17.48
2023-02-09T16:17:43.464Z,17.30
2023-02-09T16:20:31.532Z,17.35
2023-02-09T16:23:21.682Z,17.65
2023-02-09T16:26:09.409Z,17.50
2023-02-09T16:28:55.676Z,17.65
2023-02-09T16:31:41.728Z,17.92
2023-02-09T16:34:27.945Z,18.48
2023-02-09T16:37:17.752Z,17.80
2023-02-09T16:42:58.046Z,18.20
2023-02-09T16:48:49.182Z,17.80
2023-02-09T16:59:56.710Z,17.80
2023-02-09T17:44:47.534Z,20.40
2023-02-09T19:24:48.444Z,22.67
2023-02-09T20:12:02.577Z,25.42
2023-02-09T20:34:15.366Z,26.10
2023-02-09T20:39:46.807Z,24.50
2023-02-09T20:51:30.766Z,28.37
2023-02-09T21:05:22.000Z,27.70
2023-02-09T21:10:55.825Z,28.00
2023-02-09T21:26:08.710Z,32.42
2023-02-09T21:32:10.639Z,44.20
2023-02-09T21:43:15.003Z,28.40
2023-02-09T21:51:24.131Z,28.77
2023-02-09T21:54:13.460Z,29.10
2023-02-09T21:56:59.455Z,27.48
2023-02-09T21:59:45.763Z,28.00
2023-02-09T22:05:20.139Z,26.20
2023-02-09T22:08:06.317Z,26.30
2023-02-09T22:19:14.204Z,33.60
2023-02-09T22:22:03.949Z,47.00
2023-02-09T22:24:50.180Z,33.83
2023-02-09T22:44:15.773Z,29.27
2023-02-09T22:47:01.811Z,29.73
2023-02-09T22:49:47.564Z,28.02
2023-02-09T22:52:34.334Z,27.92
2023-02-09T22:55:21.477Z,27.58
2023-02-09T22:58:07.172Z,27.00
2023-02-09T23:00:52.768Z,27.58
2023-02-09T23:03:39.177Z,27.13
2023-02-09T23:06:27.528Z,27.60
2023-02-09T23:12:02.017Z,27.25
2023-02-09T23:17:34.179Z,28.20
2023-02-09T23:23:06.765Z,26.30
2023-02-09T23:25:52.481Z,46.10
2023-02-09T23:28:39.368Z,32.70
2023-02-09T23:31:25.365Z,30.13
2023-02-09T23:34:13.959Z,29.83
2023-02-09T23:37:05.172Z,28.83
2023-02-09T23:39:59.256Z,28.20
2023-02-09T23:42:44.821Z,28.15
2023-02-09T23:45:31.851Z,27.73
2023-02-09T23:48:17.861Z,28.08
2023-02-09T23:51:06.389Z,30.08
2023-02-09T23:53:53.478Z,28.63
2023-02-09T23:56:39.579Z,28.30
2023-02-09T23:59:25.623Z,28.38
